首页
METAR-TAF:

METAR-TAF

机场 :

Fort Bragg, 北卡罗来纳州, 美国

纬度: 35-08N, 经度: 078-56W, 海拔: 74米

当前天气观测

该预报发布于18分钟前的10:42 UTC
风速5节,风向西转西南
温度 18°C
湿度 83%
气压 1013 hPa
能見度: 16.1公里
天空无云

METAR: KFBG 241042Z AUTO 24005KT 10SM CLR 18/15 A2992 RMK AO2 SLP133 $

时间: 07:00 (11:00 UTC)

预报

该预报发布于2小时和0分钟前的09:00 UTC
预报有效从24日的 09点(UTC)到 25日的 15点(UTC)
风速6节,风向南转西南
能见度10公里或以上
散云层高于15000英尺
多云层高于20000英尺
成为
从 24日的 21点(UTC)到 24日的 22点(UTC)
风速6节,风向西南
能见度10公里或以上
天空无云
成为
从 25日的 12点(UTC)到 25日的 13点(UTC)
风速9节,风向西转西南
能见度10公里或以上
少量云层高于20000英尺

TAF: KFBG 240900Z 2409/2515 21006KT 9999 SCT150 BKN200 QNH2989INS BECMG 2421/2422 23006KT 9999 SKC QNH2988INS BECMG 2512/2513 24009KT 9999 FEW200 QNH2991INS TX29/2420Z TN16/2411Z

超过4000个机场的气象观测和天气预报(METAR&TAF报告)。

可查询的气象台以黄色和红色小点在地图上表示。

将鼠标移到小点上方,可查看气象台名称。

然后点击查看天气观测和预报。

如需切换地图:点击带黑十字的绿色按钮放大地图;点击带横线的绿色按钮缩小地图;或者点击绿色箭头查看邻近地区的地图。


METAR-TAF: